sensor_id;sensor_type;location;lat;lon;timestamp;pressure;altitude;pressure_sealevel;temperature;humidity
2711;BME280;20721;47.402;8.550;2022-07-11T00:00:28;96692;;;17.73;45.37
2711;BME280;20721;47.402;8.550;2022-07-11T00:01:28;96692;;;17.69;45.42
2711;BME280;20721;47.402;8.550;2022-07-11T00:02:28;96687;;;17.65;45.37
2711;BME280;20721;47.402;8.550;2022-07-11T00:03:28;96685;;;17.63;45.51
2711;BME280;20721;47.402;8.550;2022-07-11T00:04:30;96685;;;17.59;45.68
2711;BME280;20721;47.402;8.550;2022-07-11T00:05:28;96685;;;17.58;45.71
2711;BME280;20721;47.402;8.550;2022-07-11T00:06:28;96686;;;17.46;45.90
2711;BME280;20721;47.402;8.550;2022-07-11T00:07:28;96683;;;17.39;46.02
2711;BME280;20721;47.402;8.550;2022-07-11T00:08:28;96683;;;17.32;46.23
2711;BME280;20721;47.402;8.550;2022-07-11T00:09:28;96683;;;17.33;46.25
2711;BME280;20721;47.402;8.550;2022-07-11T00:10:28;96686;;;17.28;46.36
2711;BME280;20721;47.402;8.550;2022-07-11T00:11:28;96684;;;17.27;46.36
2711;BME280;20721;47.402;8.550;2022-07-11T00:12:28;96679;;;17.29;46.48
2711;BME280;20721;47.402;8.550;2022-07-11T00:13:28;96678;;;17.26;46.43
2711;BME280;20721;47.402;8.550;2022-07-11T00:14:28;96684;;;17.22;46.50
2711;BME280;20721;47.402;8.550;2022-07-11T00:15:28;96679;;;17.23;46.50
2711;BME280;20721;47.402;8.550;2022-07-11T00:16:28;96679;;;17.24;46.46
2711;BME280;20721;47.402;8.550;2022-07-11T00:17:28;96679;;;17.20;46.55
2711;BME280;20721;47.402;8.550;2022-07-11T00:18:28;96679;;;17.16;46.67
2711;BME280;20721;47.402;8.550;2022-07-11T00:19:28;96680;;;17.19;46.51
2711;BME280;20721;47.402;8.550;2022-07-11T00:20:28;96681;;;17.25;46.46
2711;BME280;20721;47.402;8.550;2022-07-11T00:21:28;96684;;;17.26;46.43
2711;BME280;20721;47.402;8.550;2022-07-11T00:22:28;96684;;;17.24;46.52
2711;BME280;20721;47.402;8.550;2022-07-11T00:23:28;96678;;;17.25;46.51
2711;BME280;20721;47.402;8.550;2022-07-11T00:24:29;96681;;;17.26;46.55
2711;BME280;20721;47.402;8.550;2022-07-11T00:25:28;96681;;;17.25;46.64
2711;BME280;20721;47.402;8.550;2022-07-11T00:26:28;96677;;;17.28;46.53
2711;BME280;20721;47.402;8.550;2022-07-11T00:27:28;96675;;;17.29;46.54
2711;BME280;20721;47.402;8.550;2022-07-11T00:28:28;96679;;;17.32;46.49
2711;BME280;20721;47.402;8.550;2022-07-11T00:29:29;96680;;;17.33;46.36
2711;BME280;20721;47.402;8.550;2022-07-11T00:30:28;96682;;;17.35;46.33
2711;BME280;20721;47.402;8.550;2022-07-11T00:31:28;96684;;;17.38;46.31
2711;BME280;20721;47.402;8.550;2022-07-11T00:32:28;96682;;;17.40;46.12
2711;BME280;20721;47.402;8.550;2022-07-11T00:33:28;96684;;;17.41;46.13
2711;BME280;20721;47.402;8.550;2022-07-11T00:34:31;96680;;;17.33;46.12
2711;BME280;20721;47.402;8.550;2022-07-11T00:35:28;96680;;;17.30;46.21
2711;BME280;20721;47.402;8.550;2022-07-11T00:36:28;96682;;;17.18;46.51
2711;BME280;20721;47.402;8.550;2022-07-11T00:37:28;96682;;;17.12;46.51
2711;BME280;20721;47.402;8.550;2022-07-11T00:38:28;96681;;;17.10;46.63
2711;BME280;20721;47.402;8.550;2022-07-11T00:39:28;96685;;;17.06;46.62
2711;BME280;20721;47.402;8.550;2022-07-11T00:40:28;96681;;;16.99;46.67
2711;BME280;20721;47.402;8.550;2022-07-11T00:41:28;96680;;;16.98;46.70
2711;BME280;20721;47.402;8.550;2022-07-11T00:42:28;96683;;;16.91;46.96
2711;BME280;20721;47.402;8.550;2022-07-11T00:43:30;96682;;;16.83;47.04
2711;BME280;20721;47.402;8.550;2022-07-11T00:44:28;96681;;;16.84;47.04
2711;BME280;20721;47.402;8.550;2022-07-11T00:45:28;96680;;;16.85;47.10
2711;BME280;20721;47.402;8.550;2022-07-11T00:46:29;96677;;;16.83;47.07
2711;BME280;20721;47.402;8.550;2022-07-11T00:47:28;96678;;;16.81;47.07
2711;BME280;20721;47.402;8.550;2022-07-11T00:48:28;96677;;;16.82;47.24
2711;BME280;20721;47.402;8.550;2022-07-11T00:49:28;96677;;;16.80;47.09
2711;BME280;20721;47.402;8.550;2022-07-11T00:50:28;96673;;;16.76;47.17
2711;BME280;20721;47.402;8.550;2022-07-11T00:51:29;96676;;;16.67;47.24
2711;BME280;20721;47.402;8.550;2022-07-11T00:52:28;96676;;;16.68;47.19
2711;BME280;20721;47.402;8.550;2022-07-11T00:53:28;96675;;;16.67;47.33
2711;BME280;20721;47.402;8.550;2022-07-11T00:54:28;96673;;;16.56;47.58
2711;BME280;20721;47.402;8.550;2022-07-11T00:55:28;96673;;;16.55;47.58
2711;BME280;20721;47.402;8.550;2022-07-11T00:56:29;96673;;;16.51;47.58
2711;BME280;20721;47.402;8.550;2022-07-11T00:57:28;96675;;;16.52;47.57
2711;BME280;20721;47.402;8.550;2022-07-11T00:58:28;96672;;;16.53;47.60
2711;BME280;20721;47.402;8.550;2022-07-11T00:59:28;96670;;;16.57;47.55
2711;BME280;20721;47.402;8.550;2022-07-11T01:00:28;96671;;;16.48;47.60
2711;BME280;20721;47.402;8.550;2022-07-11T01:01:28;96667;;;16.44;47.64
2711;BME280;20721;47.402;8.550;2022-07-11T01:02:28;96669;;;16.46;47.70
2711;BME280;20721;47.402;8.550;2022-07-11T01:03:28;96673;;;16.37;47.84
2711;BME280;20721;47.402;8.550;2022-07-11T01:04:28;96669;;;16.43;47.69
2711;BME280;20721;47.402;8.550;2022-07-11T01:05:28;96668;;;16.49;47.69
2711;BME280;20721;47.402;8.550;2022-07-11T01:06:28;96670;;;16.52;47.49
2711;BME280;20721;47.402;8.550;2022-07-11T01:07:29;96669;;;16.55;47.60
2711;BME280;20721;47.402;8.550;2022-07-11T01:08:31;96666;;;16.52;47.44
2711;BME280;20721;47.402;8.550;2022-07-11T01:09:28;96666;;;16.58;47.33
2711;BME280;20721;47.402;8.550;2022-07-11T01:10:28;96668;;;16.50;47.48
2711;BME280;20721;47.402;8.550;2022-07-11T01:11:31;96670;;;16.55;47.42
2711;BME280;20721;47.402;8.550;2022-07-11T01:13:28;96666;;;16.57;47.50
2711;BME280;20721;47.402;8.550;2022-07-11T01:14:28;96668;;;16.58;47.48
2711;BME280;20721;47.402;8.550;2022-07-11T01:15:28;96666;;;16.61;47.44
2711;BME280;20721;47.402;8.550;2022-07-11T01:16:28;96668;;;16.67;47.45
2711;BME280;20721;47.402;8.550;2022-07-11T01:17:28;96664;;;16.72;47.30
2711;BME280;20721;47.402;8.550;2022-07-11T01:19:28;96667;;;16.71;47.23
2711;BME280;20721;47.402;8.550;2022-07-11T01:20:28;96662;;;16.61;47.47
2711;BME280;20721;47.402;8.550;2022-07-11T01:21:30;96660;;;16.55;47.64
2711;BME280;20721;47.402;8.550;2022-07-11T01:22:28;96665;;;16.51;47.64
2711;BME280;20721;47.402;8.550;2022-07-11T01:25:31;96659;;;16.46;47.80
2711;BME280;20721;47.402;8.550;2022-07-11T01:26:28;96655;;;16.41;47.92
2711;BME280;20721;47.402;8.550;2022-07-11T01:27:28;96653;;;16.35;47.91
2711;BME280;20721;47.402;8.550;2022-07-11T01:28:28;96653;;;16.36;48.01
2711;BME280;20721;47.402;8.550;2022-07-11T01:29:28;96653;;;16.35;48.13
2711;BME280;20721;47.402;8.550;2022-07-11T01:30:29;96650;;;16.31;48.15
2711;BME280;20721;47.402;8.550;2022-07-11T01:31:28;96647;;;16.35;48.09
2711;BME280;20721;47.402;8.550;2022-07-11T01:32:28;96650;;;16.38;48.19
2711;BME280;20721;47.402;8.550;2022-07-11T01:33:31;96647;;;16.34;48.34
2711;BME280;20721;47.402;8.550;2022-07-11T01:34:28;96650;;;16.41;48.22
2711;BME280;20721;47.402;8.550;2022-07-11T01:35:28;96647;;;16.37;48.08
2711;BME280;20721;47.402;8.550;2022-07-11T01:36:28;96646;;;16.32;48.23
2711;BME280;20721;47.402;8.550;2022-07-11T01:37:28;96646;;;16.35;48.29
2711;BME280;20721;47.402;8.550;2022-07-11T01:38:28;96648;;;16.37;48.21
2711;BME280;20721;47.402;8.550;2022-07-11T01:39:29;96650;;;16.36;48.44
2711;BME280;20721;47.402;8.550;2022-07-11T01:40:29;96650;;;16.37;48.35
2711;BME280;20721;47.402;8.550;2022-07-11T01:41:28;96648;;;16.36;48.38
2711;BME280;20721;47.402;8.550;2022-07-11T01:42:28;96647;;;16.32;48.53
2711;BME280;20721;47.402;8.550;2022-07-11T01:43:28;96646;;;16.35;48.47
2711;BME280;20721;47.402;8.550;2022-07-11T01:44:28;96648;;;16.40;48.37
2711;BME280;20721;47.402;8.550;2022-07-11T01:47:28;96650;;;16.38;48.42
2711;BME280;20721;47.402;8.550;2022-07-11T01:48:31;96650;;;16.32;48.47
2711;BME280;20721;47.402;8.550;2022-07-11T01:50:28;96652;;;16.26;48.64
2711;BME280;20721;47.402;8.550;2022-07-11T01:51:28;96655;;;16.24;48.73
2711;BME280;20721;47.402;8.550;2022-07-11T01:52:28;96653;;;16.19;48.87
2711;BME280;20721;47.402;8.550;2022-07-11T01:53:28;96654;;;16.20;48.94
2711;BME280;20721;47.402;8.550;2022-07-11T01:54:28;96649;;;16.23;48.91
2711;BME280;20721;47.402;8.550;2022-07-11T01:55:28;96652;;;16.21;48.98
2711;BME280;20721;47.402;8.550;2022-07-11T01:56:33;96653;;;16.18;49.02
2711;BME280;20721;47.402;8.550;2022-07-11T01:57:28;96649;;;16.16;48.99
2711;BME280;20721;47.402;8.550;2022-07-11T01:58:30;96649;;;16.08;49.19
2711;BME280;20721;47.402;8.550;2022-07-11T01:59:28;96647;;;16.06;49.27
2711;BME280;20721;47.402;8.550;2022-07-11T02:00:28;96650;;;16.05;49.39
2711;BME280;20721;47.402;8.550;2022-07-11T02:01:29;96648;;;16.04;49.42
2711;BME280;20721;47.402;8.550;2022-07-11T02:02:28;96651;;;16.02;49.48
2711;BME280;20721;47.402;8.550;2022-07-11T02:03:28;96650;;;16.03;49.56
2711;BME280;20721;47.402;8.550;2022-07-11T02:04:28;96651;;;16.02;49.47
2711;BME280;20721;47.402;8.550;2022-07-11T02:05:28;96650;;;16.05;49.51
2711;BME280;20721;47.402;8.550;2022-07-11T02:06:28;96649;;;16.06;49.39
2711;BME280;20721;47.402;8.550;2022-07-11T02:07:38;96649;;;15.98;49.53
2711;BME280;20721;47.402;8.550;2022-07-11T02:08:28;96649;;;16.04;49.39
2711;BME280;20721;47.402;8.550;2022-07-11T02:09:28;96646;;;16.05;49.43
2711;BME280;20721;47.402;8.550;2022-07-11T02:10:29;96644;;;16.01;49.49
2711;BME280;20721;47.402;8.550;2022-07-11T02:11:28;96641;;;16.02;49.50
2711;BME280;20721;47.402;8.550;2022-07-11T02:12:28;96639;;;15.98;49.58
2711;BME280;20721;47.402;8.550;2022-07-11T02:14:28;96640;;;15.96;49.61
2711;BME280;20721;47.402;8.550;2022-07-11T02:15:29;96642;;;15.99;49.59
2711;BME280;20721;47.402;8.550;2022-07-11T02:16:28;96644;;;15.98;49.61
2711;BME280;20721;47.402;8.550;2022-07-11T02:17:28;96644;;;15.95;49.61
2711;BME280;20721;47.402;8.550;2022-07-11T02:18:28;96643;;;15.92;49.76
2711;BME280;20721;47.402;8.550;2022-07-11T02:19:28;96641;;;15.91;49.75
2711;BME280;20721;47.402;8.550;2022-07-11T02:21:28;96641;;;15.86;49.90
2711;BME280;20721;47.402;8.550;2022-07-11T02:22:29;96642;;;15.84;49.99
2711;BME280;20721;47.402;8.550;2022-07-11T02:23:28;96642;;;15.83;50.13
2711;BME280;20721;47.402;8.550;2022-07-11T02:24:28;96641;;;15.84;50.16
2711;BME280;20721;47.402;8.550;2022-07-11T02:25:32;96640;;;15.85;50.06
2711;BME280;20721;47.402;8.550;2022-07-11T02:26:28;96641;;;15.87;49.99
2711;BME280;20721;47.402;8.550;2022-07-11T02:27:28;96636;;;15.86;50.06
2711;BME280;20721;47.402;8.550;2022-07-11T02:28:28;96637;;;15.85;50.05
2711;BME280;20721;47.402;8.550;2022-07-11T02:29:28;96637;;;15.87;50.05
2711;BME280;20721;47.402;8.550;2022-07-11T02:30:28;96635;;;15.90;50.00
2711;BME280;20721;47.402;8.550;2022-07-11T02:32:28;96629;;;15.89;50.17
2711;BME280;20721;47.402;8.550;2022-07-11T02:33:28;96633;;;15.91;50.20
2711;BME280;20721;47.402;8.550;2022-07-11T02:34:28;96629;;;15.96;50.25
2711;BME280;20721;47.402;8.550;2022-07-11T02:35:28;96630;;;15.95;50.27
2711;BME280;20721;47.402;8.550;2022-07-11T02:36:28;96630;;;15.96;50.26
2711;BME280;20721;47.402;8.550;2022-07-11T02:37:28;96629;;;15.88;50.42
2711;BME280;20721;47.402;8.550;2022-07-11T02:38:28;96630;;;15.90;50.38
2711;BME280;20721;47.402;8.550;2022-07-11T02:39:28;96628;;;15.86;50.42
2711;BME280;20721;47.402;8.550;2022-07-11T02:40:28;96623;;;15.87;50.37
2711;BME280;20721;47.402;8.550;2022-07-11T02:41:29;96625;;;15.89;50.32
2711;BME280;20721;47.402;8.550;2022-07-11T02:42:28;96625;;;15.90;50.32
2711;BME280;20721;47.402;8.550;2022-07-11T02:43:28;96624;;;15.93;50.33
2711;BME280;20721;47.402;8.550;2022-07-11T02:44:28;96622;;;15.94;50.28
2711;BME280;20721;47.402;8.550;2022-07-11T02:45:28;96622;;;15.90;50.36
2711;BME280;20721;47.402;8.550;2022-07-11T02:46:28;96620;;;15.91;50.38
2711;BME280;20721;47.402;8.550;2022-07-11T02:47:28;96619;;;15.92;50.38
2711;BME280;20721;47.402;8.550;2022-07-11T02:48:28;96616;;;15.96;50.35
2711;BME280;20721;47.402;8.550;2022-07-11T02:49:30;96619;;;15.99;50.27
2711;BME280;20721;47.402;8.550;2022-07-11T02:50:28;96619;;;16.02;50.22
2711;BME280;20721;47.402;8.550;2022-07-11T02:51:28;96619;;;16.05;50.23
2711;BME280;20721;47.402;8.550;2022-07-11T02:53:28;96620;;;16.07;50.27
2711;BME280;20721;47.402;8.550;2022-07-11T02:55:28;96626;;;16.08;50.06
2711;BME280;20721;47.402;8.550;2022-07-11T02:56:28;96624;;;16.05;50.27
2711;BME280;20721;47.402;8.550;2022-07-11T02:58:28;96620;;;16.04;50.50
2711;BME280;20721;47.402;8.550;2022-07-11T02:59:28;96619;;;15.97;50.57
2711;BME280;20721;47.402;8.550;2022-07-11T03:00:28;96621;;;15.93;50.52
2711;BME280;20721;47.402;8.550;2022-07-11T03:01:28;96621;;;15.88;50.65
2711;BME280;20721;47.402;8.550;2022-07-11T03:04:29;96618;;;15.86;50.87
2711;BME280;20721;47.402;8.550;2022-07-11T03:05:29;96616;;;15.87;50.85
2711;BME280;20721;47.402;8.550;2022-07-11T03:06:28;96616;;;15.89;50.76
2711;BME280;20721;47.402;8.550;2022-07-11T03:07:28;96617;;;15.90;50.86
2711;BME280;20721;47.402;8.550;2022-07-11T03:09:28;96616;;;15.88;50.90
2711;BME280;20721;47.402;8.550;2022-07-11T03:10:28;96616;;;15.90;50.85
2711;BME280;20721;47.402;8.550;2022-07-11T03:11:28;96614;;;15.92;50.85
2711;BME280;20721;47.402;8.550;2022-07-11T03:12:28;96617;;;15.95;50.81
2711;BME280;20721;47.402;8.550;2022-07-11T03:13:28;96620;;;15.97;50.75
2711;BME280;20721;47.402;8.550;2022-07-11T03:14:28;96617;;;16.00;50.71
2711;BME280;20721;47.402;8.550;2022-07-11T03:15:28;96618;;;15.99;50.74
2711;BME280;20721;47.402;8.550;2022-07-11T03:16:29;96618;;;16.00;50.72
2711;BME280;20721;47.402;8.550;2022-07-11T03:17:29;96616;;;15.99;50.82
2711;BME280;20721;47.402;8.550;2022-07-11T03:19:28;96611;;;15.97;50.90
2711;BME280;20721;47.402;8.550;2022-07-11T03:21:28;96612;;;15.96;50.89
2711;BME280;20721;47.402;8.550;2022-07-11T03:22:28;96615;;;15.93;51.06
2711;BME280;20721;47.402;8.550;2022-07-11T03:23:28;96611;;;15.94;51.00
2711;BME280;20721;47.402;8.550;2022-07-11T03:24:28;96616;;;15.95;50.99
2711;BME280;20721;47.402;8.550;2022-07-11T03:25:29;96618;;;15.94;51.08
2711;BME280;20721;47.402;8.550;2022-07-11T03:26:28;96619;;;15.92;51.13
2711;BME280;20721;47.402;8.550;2022-07-11T03:27:28;96620;;;15.90;51.19
2711;BME280;20721;47.402;8.550;2022-07-11T03:28:28;96620;;;15.89;51.28
2711;BME280;20721;47.402;8.550;2022-07-11T03:29:28;96621;;;15.91;51.27
2711;BME280;20721;47.402;8.550;2022-07-11T03:30:28;96619;;;15.87;51.32
2711;BME280;20721;47.402;8.550;2022-07-11T03:31:29;96622;;;15.86;51.42
2711;BME280;20721;47.402;8.550;2022-07-11T03:32:29;96619;;;15.87;51.39
2711;BME280;20721;47.402;8.550;2022-07-11T03:33:29;96618;;;15.86;51.43
2711;BME280;20721;47.402;8.550;2022-07-11T03:34:28;96616;;;15.85;51.43
2711;BME280;20721;47.402;8.550;2022-07-11T03:35:38;96615;;;15.87;51.46
2711;BME280;20721;47.402;8.550;2022-07-11T03:36:28;96615;;;15.91;51.39
2711;BME280;20721;47.402;8.550;2022-07-11T03:38:28;96614;;;15.92;51.35
2711;BME280;20721;47.402;8.550;2022-07-11T03:39:32;96614;;;15.95;51.32
2711;BME280;20721;47.402;8.550;2022-07-11T03:41:28;96615;;;15.92;51.46
2711;BME280;20721;47.402;8.550;2022-07-11T03:42:28;96609;;;15.83;51.53
2711;BME280;20721;47.402;8.550;2022-07-11T03:43:28;96612;;;15.78;51.62
2711;BME280;20721;47.402;8.550;2022-07-11T03:44:28;96610;;;15.76;51.83
2711;BME280;20721;47.402;8.550;2022-07-11T03:45:29;96607;;;15.75;51.87
2711;BME280;20721;47.402;8.550;2022-07-11T03:46:29;96608;;;15.74;51.83
2711;BME280;20721;47.402;8.550;2022-07-11T03:49:28;96611;;;15.75;51.89
2711;BME280;20721;47.402;8.550;2022-07-11T03:50:29;96612;;;15.76;52.04
2711;BME280;20721;47.402;8.550;2022-07-11T03:51:28;96611;;;15.77;51.96
2711;BME280;20721;47.402;8.550;2022-07-11T03:52:28;96615;;;15.82;51.87
2711;BME280;20721;47.402;8.550;2022-07-11T03:53:28;96612;;;15.85;51.87
2711;BME280;20721;47.402;8.550;2022-07-11T03:54:28;96614;;;15.88;51.75
2711;BME280;20721;47.402;8.550;2022-07-11T03:55:29;96612;;;15.90;51.76
2711;BME280;20721;47.402;8.550;2022-07-11T03:56:28;96611;;;15.83;51.85
2711;BME280;20721;47.402;8.550;2022-07-11T03:57:28;96611;;;15.80;51.95
2711;BME280;20721;47.402;8.550;2022-07-11T04:00:28;96616;;;15.78;52.16
2711;BME280;20721;47.402;8.550;2022-07-11T04:02:29;96617;;;15.80;52.19
2711;BME280;20721;47.402;8.550;2022-07-11T04:03:28;96618;;;15.78;51.98
2711;BME280;20721;47.402;8.550;2022-07-11T04:04:28;96618;;;15.82;51.97
2711;BME280;20721;47.402;8.550;2022-07-11T04:05:28;96617;;;15.84;52.03
2711;BME280;20721;47.402;8.550;2022-07-11T04:06:28;96618;;;15.86;51.82
2711;BME280;20721;47.402;8.550;2022-07-11T04:07:28;96618;;;15.87;51.98
2711;BME280;20721;47.402;8.550;2022-07-11T04:08:28;96617;;;15.86;51.86
2711;BME280;20721;47.402;8.550;2022-07-11T04:09:28;96620;;;15.87;51.89
2711;BME280;20721;47.402;8.550;2022-07-11T04:10:28;96618;;;15.89;51.98
2711;BME280;20721;47.402;8.550;2022-07-11T04:11:28;96618;;;15.91;51.87
2711;BME280;20721;47.402;8.550;2022-07-11T04:12:28;96619;;;15.90;51.86
2711;BME280;20721;47.402;8.550;2022-07-11T04:13:29;96617;;;15.93;51.65
2711;BME280;20721;47.402;8.550;2022-07-11T04:15:28;96615;;;15.92;51.60
2711;BME280;20721;47.402;8.550;2022-07-11T04:16:32;96616;;;15.89;51.75
2711;BME280;20721;47.402;8.550;2022-07-11T04:17:28;96616;;;15.88;51.60
2711;BME280;20721;47.402;8.550;2022-07-11T04:18:29;96611;;;15.86;51.58
2711;BME280;20721;47.402;8.550;2022-07-11T04:19:28;96616;;;15.85;51.61
2711;BME280;20721;47.402;8.550;2022-07-11T04:20:28;96617;;;15.83;51.63
2711;BME280;20721;47.402;8.550;2022-07-11T04:21:28;96618;;;15.84;51.65
2711;BME280;20721;47.402;8.550;2022-07-11T04:23:28;96616;;;15.86;51.61
2711;BME280;20721;47.402;8.550;2022-07-11T04:24:28;96616;;;15.88;51.57
2711;BME280;20721;47.402;8.550;2022-07-11T04:25:29;96618;;;15.92;51.55
2711;BME280;20721;47.402;8.550;2022-07-11T04:26:28;96618;;;15.94;51.46
2711;BME280;20721;47.402;8.550;2022-07-11T04:27:31;96614;;;15.96;51.46
2711;BME280;20721;47.402;8.550;2022-07-11T04:28:28;96619;;;15.97;51.32
2711;BME280;20721;47.402;8.550;2022-07-11T04:29:29;96620;;;16.00;51.39
2711;BME280;20721;47.402;8.550;2022-07-11T04:30:28;96622;;;15.99;51.39
2711;BME280;20721;47.402;8.550;2022-07-11T04:32:28;96621;;;15.98;51.40
2711;BME280;20721;47.402;8.550;2022-07-11T04:33:28;96621;;;15.99;51.48
2711;BME280;20721;47.402;8.550;2022-07-11T04:34:29;96620;;;16.01;51.42
2711;BME280;20721;47.402;8.550;2022-07-11T04:35:30;96612;;;16.03;51.35
2711;BME280;20721;47.402;8.550;2022-07-11T04:36:28;96618;;;16.02;51.33
2711;BME280;20721;47.402;8.550;2022-07-11T04:38:29;96611;;;16.03;51.34
2711;BME280;20721;47.402;8.550;2022-07-11T04:39:29;96609;;;16.06;51.38
2711;BME280;20721;47.402;8.550;2022-07-11T04:40:29;96613;;;16.04;51.17
2711;BME280;20721;47.402;8.550;2022-07-11T04:41:28;96620;;;15.96;51.28
2711;BME280;20721;47.402;8.550;2022-07-11T04:43:29;96620;;;15.97;51.42
2711;BME280;20721;47.402;8.550;2022-07-11T04:44:28;96626;;;15.99;51.48
2711;BME280;20721;47.402;8.550;2022-07-11T04:46:29;96627;;;16.02;51.34
2711;BME280;20721;47.402;8.550;2022-07-11T04:47:28;96625;;;15.99;51.59
2711;BME280;20721;47.402;8.550;2022-07-11T04:48:29;96626;;;16.03;51.54
2711;BME280;20721;47.402;8.550;2022-07-11T04:49:29;96625;;;16.08;51.50
2711;BME280;20721;47.402;8.550;2022-07-11T04:50:29;96622;;;16.15;51.37
2711;BME280;20721;47.402;8.550;2022-07-11T04:51:29;96622;;;16.19;51.23
2711;BME280;20721;47.402;8.550;2022-07-11T04:53:32;96624;;;16.23;51.09
2711;BME280;20721;47.402;8.550;2022-07-11T04:54:28;96625;;;16.27;51.10
2711;BME280;20721;47.402;8.550;2022-07-11T04:55:29;96628;;;16.33;51.00
2711;BME280;20721;47.402;8.550;2022-07-11T04:56:29;96625;;;16.32;50.78
2711;BME280;20721;47.402;8.550;2022-07-11T04:57:29;96630;;;16.34;50.69
2711;BME280;20721;47.402;8.550;2022-07-11T04:58:32;96629;;;16.37;50.57
2711;BME280;20721;47.402;8.550;2022-07-11T04:59:29;96631;;;16.34;50.50
2711;BME280;20721;47.402;8.550;2022-07-11T05:00:29;96632;;;16.36;50.47
2711;BME280;20721;47.402;8.550;2022-07-11T05:01:29;96633;;;16.42;50.49
2711;BME280;20721;47.402;8.550;2022-07-11T05:02:29;96634;;;16.46;50.37
2711;BME280;20721;47.402;8.550;2022-07-11T05:04:29;96636;;;16.49;50.41
2711;BME280;20721;47.402;8.550;2022-07-11T05:05:29;96637;;;16.55;50.42
2711;BME280;20721;47.402;8.550;2022-07-11T05:06:29;96633;;;16.56;50.07
2711;BME280;20721;47.402;8.550;2022-07-11T05:07:29;96635;;;16.60;50.10
2711;BME280;20721;47.402;8.550;2022-07-11T05:08:30;96634;;;16.61;50.25
2711;BME280;20721;47.402;8.550;2022-07-11T05:09:29;96634;;;16.65;50.25
2711;BME280;20721;47.402;8.550;2022-07-11T05:10:31;96637;;;16.67;49.90
2711;BME280;20721;47.402;8.550;2022-07-11T05:11:30;96633;;;16.71;49.85
2711;BME280;20721;47.402;8.550;2022-07-11T05:12:29;96636;;;16.80;49.89
2711;BME280;20721;47.402;8.550;2022-07-11T05:13:29;96639;;;16.75;49.74
2711;BME280;20721;47.402;8.550;2022-07-11T05:14:29;96638;;;16.78;49.65
2711;BME280;20721;47.402;8.550;2022-07-11T05:15:29;96641;;;16.79;49.60
2711;BME280;20721;47.402;8.550;2022-07-11T05:17:29;96638;;;16.74;49.77
2711;BME280;20721;47.402;8.550;2022-07-11T05:18:29;96637;;;16.76;49.80
2711;BME280;20721;47.402;8.550;2022-07-11T05:19:29;96636;;;16.83;49.96
2711;BME280;20721;47.402;8.550;2022-07-11T05:20:29;96641;;;16.73;49.90
2711;BME280;20721;47.402;8.550;2022-07-11T05:22:29;96639;;;16.76;50.06
2711;BME280;20721;47.402;8.550;2022-07-11T05:24:29;96640;;;16.82;50.07
2711;BME280;20721;47.402;8.550;2022-07-11T05:25:29;96637;;;16.81;49.74
2711;BME280;20721;47.402;8.550;2022-07-11T05:26:29;96639;;;16.90;49.88
2711;BME280;20721;47.402;8.550;2022-07-11T05:27:29;96637;;;16.98;49.67
2711;BME280;20721;47.402;8.550;2022-07-11T05:28:29;96632;;;17.04;49.87
2711;BME280;20721;47.402;8.550;2022-07-11T05:29:29;96638;;;17.03;49.55
2711;BME280;20721;47.402;8.550;2022-07-11T05:30:33;96639;;;16.95;49.52
2711;BME280;20721;47.402;8.550;2022-07-11T05:31:29;96636;;;16.86;49.46
2711;BME280;20721;47.402;8.550;2022-07-11T05:32:36;96633;;;16.90;49.58
2711;BME280;20721;47.402;8.550;2022-07-11T05:33:29;96636;;;16.92;49.69
2711;BME280;20721;47.402;8.550;2022-07-11T05:34:29;96634;;;16.90;49.52
2711;BME280;20721;47.402;8.550;2022-07-11T05:35:29;96630;;;17.00;49.55
2711;BME280;20721;47.402;8.550;2022-07-11T05:36:29;96628;;;17.05;49.54
2711;BME280;20721;47.402;8.550;2022-07-11T05:37:29;96634;;;17.08;49.20
2711;BME280;20721;47.402;8.550;2022-07-11T05:38:29;96637;;;17.13;49.20
2711;BME280;20721;47.402;8.550;2022-07-11T05:39:29;96636;;;17.14;49.10
2711;BME280;20721;47.402;8.550;2022-07-11T05:40:29;96635;;;17.22;48.94
2711;BME280;20721;47.402;8.550;2022-07-11T05:41:29;96633;;;17.34;48.84
2711;BME280;20721;47.402;8.550;2022-07-11T05:42:29;96634;;;17.46;48.66
2711;BME280;20721;47.402;8.550;2022-07-11T05:43:29;96633;;;17.53;48.35
2711;BME280;20721;47.402;8.550;2022-07-11T05:44:29;96631;;;17.67;48.27
2711;BME280;20721;47.402;8.550;2022-07-11T05:45:29;96634;;;17.72;47.74
2711;BME280;20721;47.402;8.550;2022-07-11T05:46:29;96643;;;17.81;47.92
2711;BME280;20721;47.402;8.550;2022-07-11T05:47:29;96638;;;17.88;47.65
2711;BME280;20721;47.402;8.550;2022-07-11T05:48:29;96639;;;17.97;48.33
2711;BME280;20721;47.402;8.550;2022-07-11T05:49:30;96642;;;18.03;47.53
2711;BME280;20721;47.402;8.550;2022-07-11T05:50:29;96643;;;18.08;46.77
2711;BME280;20721;47.402;8.550;2022-07-11T05:51:29;96640;;;18.23;46.81
2711;BME280;20721;47.402;8.550;2022-07-11T05:52:29;96639;;;18.35;46.81
2711;BME280;20721;47.402;8.550;2022-07-11T05:53:29;96644;;;18.43;46.65
2711;BME280;20721;47.402;8.550;2022-07-11T05:54:29;96642;;;18.51;46.12
2711;BME280;20721;47.402;8.550;2022-07-11T05:55:29;96641;;;18.50;45.87
2711;BME280;20721;47.402;8.550;2022-07-11T05:56:29;96642;;;18.51;45.94
2711;BME280;20721;47.402;8.550;2022-07-11T05:57:29;96644;;;18.52;45.88
2711;BME280;20721;47.402;8.550;2022-07-11T05:58:29;96637;;;18.62;46.17
2711;BME280;20721;47.402;8.550;2022-07-11T05:59:29;96636;;;18.64;45.44
2711;BME280;20721;47.402;8.550;2022-07-11T06:00:29;96638;;;18.77;45.45
2711;BME280;20721;47.402;8.550;2022-07-11T06:01:36;96639;;;18.78;45.16
2711;BME280;20721;47.402;8.550;2022-07-11T06:02:29;96640;;;18.85;44.99
2711;BME280;20721;47.402;8.550;2022-07-11T06:03:29;96641;;;18.86;44.61
2711;BME280;20721;47.402;8.550;2022-07-11T06:04:29;96640;;;18.83;44.54
2711;BME280;20721;47.402;8.550;2022-07-11T06:05:29;96644;;;18.93;44.53
2711;BME280;20721;47.402;8.550;2022-07-11T06:06:29;96643;;;18.97;44.94
2711;BME280;20721;47.402;8.550;2022-07-11T06:07:43;96639;;;18.94;43.64
2711;BME280;20721;47.402;8.550;2022-07-11T06:08:39;96641;;;19.00;44.00
2711;BME280;20721;47.402;8.550;2022-07-11T06:09:29;96637;;;18.98;43.89
2711;BME280;20721;47.402;8.550;2022-07-11T06:10:29;96638;;;19.00;44.04
2711;BME280;20721;47.402;8.550;2022-07-11T06:11:29;96638;;;19.07;43.72